Date,TemperatureHighF,TemperatureAvgF,TemperatureLowF,DewpointHighF,DewpointAvgF,DewpointLowF,HumidityHigh,HumidityAvg,HumidityLow,PressureMaxIn,PressureMinIn,WindSpeedMaxMPH,WindSpeedAvgMPH,GustSpeedMaxMPH,PrecipitationSumIn
2013-5-1,67.8,59.7,54.3,57.6,54.4,51.4,91,83,69,30.34,30.21,0,0,0,0.00
2013-5-2,64.2,58.6,54.7,55.3,52.5,49.1,89,80,72,30.36,30.28,0,0,0,0.00
2013-5-3,64.6,55.8,49.3,52.0,49.0,42.7,92,79,60,30.29,30.18,0,0,0,0.00
2013-5-4,65.3,54.6,48.4,50.2,45.4,41.0,87,72,51,30.22,30.09,6,0,6,0.00
2013-5-5,55.0,52.7,49.6,53.3,47.6,43.4,94,83,70,30.11,29.96,12,2,12,0.07
2013-5-6,68.9,59.6,54.5,62.5,56.9,53.0,95,91,79,29.99,29.85,15,1,15,1.17
2013-5-7,74.7,60.5,53.4,60.5,54.1,50.0,95,82,48,29.98,29.88,7,0,7,0.05
2013-5-8,72.1,60.4,52.2,60.7,55.1,49.8,93,84,66,30.04,29.95,5,0,5,0.10
2013-5-9,82.8,65.5,50.2,61.7,55.7,48.8,95,74,44,30.10,30.02,8,0,8,0.00
2013-5-10,86.2,70.4,55.4,64.9,59.0,52.5,91,69,44,30.11,29.97,10,0,10,0.00
2013-5-11,82.9,71.2,62.1,63.8,61.0,58.8,91,72,49,29.99,29.83,6,0,6,0.50
2013-5-12,73.0,62.5,54.0,59.7,46.9,33.2,93,61,32,30.07,29.87,10,1,10,0.03
2013-5-13,70.0,56.4,42.3,42.3,34.9,29.6,80,47,27,30.20,30.06,6,0,6,0.00
2013-5-14,74.8,58.0,40.5,46.1,40.0,31.9,81,53,32,30.28,30.08,9,0,9,0.00
2013-5-15,90.7,70.6,52.5,65.8,55.6,42.9,78,61,40,30.09,29.94,4,0,4,0.00
2013-5-16,87.1,72.6,59.2,63.5,59.8,55.6,89,66,39,30.04,29.96,2,0,2,0.00
2013-5-17,90.7,73.6,58.8,64.0,60.0,55.6,90,65,38,30.12,30.03,7,0,7,0.06
2013-5-18,76.8,69.0,64.9,67.7,63.3,60.2,88,82,70,30.20,30.11,5,0,5,0.10
2013-5-19,79.2,69.7,64.6,70.3,64.8,61.0,91,85,71,30.16,30.08,6,0,6,0.05
2013-5-20,83.3,71.6,64.8,72.6,66.1,61.7,93,84,59,30.15,30.05,4,0,4,0.25
2013-5-21,89.4,75.4,64.4,73.5,68.2,62.2,95,80,52,30.09,29.97,5,0,5,0.02
2013-5-22,88.9,75.2,66.2,71.2,66.5,62.5,92,76,53,30.06,29.93,8,1,8,0.25
2013-5-23,79.5,69.7,62.6,69.3,64.4,58.9,94,84,65,30.01,29.85,6,0,6,0.35
2013-5-24,70.5,63.3,54.9,60.9,48.6,34.3,95,63,31,30.23,29.89,11,2,11,0.00
2013-5-25,76.8,61.0,42.8,47.1,40.0,35.7,84,49,29,30.32,30.16,6,1,6,0.00
2013-5-26,77.2,63.4,53.8,51.4,46.7,37.5,74,56,36,30.31,30.19,5,0,5,0.00
2013-5-27,84.0,68.3,53.2,59.6,53.9,48.8,86,63,40,30.31,30.17,6,0,6,0.00
2013-5-28,88.5,73.6,62.2,67.1,62.2,55.1,89,69,47,30.26,30.16,8,0,8,0.00
2013-5-29,89.2,74.7,62.8,68.1,62.5,58.4,87,68,45,30.27,30.19,7,0,7,0.00
2013-5-30,88.5,74.7,62.4,68.1,62.8,59.1,90,69,42,30.31,30.21,6,0,6,0.00
2013-5-31,89.2,76.3,64.4,70.1,64.9,60.2,90,69,47,30.26,30.14,7,0,7,0.00